sensor_id;sensor_type;location;lat;lon;timestamp;P1;durP1;ratioP1;P2;durP2;ratioP2
48845;SDS011;34665;51.886;5.436;2024-02-21T00:01:27;12.33;;;5.60;;
48845;SDS011;34665;51.886;5.436;2024-02-21T00:03:53;15.05;;;6.20;;
48845;SDS011;34665;51.886;5.436;2024-02-21T00:06:18;17.03;;;6.13;;
48845;SDS011;34665;51.886;5.436;2024-02-21T00:08:43;15.90;;;6.33;;
48845;SDS011;34665;51.886;5.436;2024-02-21T00:11:09;14.73;;;6.22;;
48845;SDS011;34665;51.886;5.436;2024-02-21T00:13:34;11.83;;;5.17;;
48845;SDS011;34665;51.886;5.436;2024-02-21T00:16:00;11.50;;;5.67;;
48845;SDS011;34665;51.886;5.436;2024-02-21T00:18:25;15.68;;;5.72;;
48845;SDS011;34665;51.886;5.436;2024-02-21T00:20:51;13.03;;;5.47;;
48845;SDS011;34665;51.886;5.436;2024-02-21T00:23:16;15.33;;;5.83;;
48845;SDS011;34665;51.886;5.436;2024-02-21T00:25:41;19.17;;;5.60;;
48845;SDS011;34665;51.886;5.436;2024-02-21T00:28:07;15.98;;;6.25;;
48845;SDS011;34665;51.886;5.436;2024-02-21T00:30:32;17.20;;;6.57;;
48845;SDS011;34665;51.886;5.436;2024-02-21T00:32:58;12.85;;;5.82;;
48845;SDS011;34665;51.886;5.436;2024-02-21T00:35:24;18.53;;;5.70;;
48845;SDS011;34665;51.886;5.436;2024-02-21T00:40:15;19.07;;;5.57;;
48845;SDS011;34665;51.886;5.436;2024-02-21T00:42:45;12.23;;;5.10;;
48845;SDS011;34665;51.886;5.436;2024-02-21T00:45:11;17.05;;;6.03;;
48845;SDS011;34665;51.886;5.436;2024-02-21T00:47:36;15.43;;;6.70;;
48845;SDS011;34665;51.886;5.436;2024-02-21T00:50:02;13.57;;;5.77;;
48845;SDS011;34665;51.886;5.436;2024-02-21T00:52:28;14.90;;;6.18;;
48845;SDS011;34665;51.886;5.436;2024-02-21T00:54:53;16.73;;;6.47;;
48845;SDS011;34665;51.886;5.436;2024-02-21T00:57:19;12.50;;;5.53;;
48845;SDS011;34665;51.886;5.436;2024-02-21T00:59:44;22.10;;;6.90;;
48845;SDS011;34665;51.886;5.436;2024-02-21T01:02:09;17.20;;;4.87;;
48845;SDS011;34665;51.886;5.436;2024-02-21T01:04:35;16.70;;;5.30;;
48845;SDS011;34665;51.886;5.436;2024-02-21T01:07:00;20.33;;;5.67;;
48845;SDS011;34665;51.886;5.436;2024-02-21T01:09:25;15.07;;;6.37;;
48845;SDS011;34665;51.886;5.436;2024-02-21T01:11:51;19.30;;;5.97;;
48845;SDS011;34665;51.886;5.436;2024-02-21T01:14:17;18.48;;;5.57;;
48845;SDS011;34665;51.886;5.436;2024-02-21T01:16:42;12.55;;;5.93;;
48845;SDS011;34665;51.886;5.436;2024-02-21T01:19:08;14.80;;;5.10;;
48845;SDS011;34665;51.886;5.436;2024-02-21T01:21:33;13.97;;;5.50;;
48845;SDS011;34665;51.886;5.436;2024-02-21T01:23:59;18.17;;;5.80;;
48845;SDS011;34665;51.886;5.436;2024-02-21T01:26:25;17.25;;;5.53;;
48845;SDS011;34665;51.886;5.436;2024-02-21T01:28:50;16.23;;;5.23;;
48845;SDS011;34665;51.886;5.436;2024-02-21T01:31:16;11.53;;;4.77;;
48845;SDS011;34665;51.886;5.436;2024-02-21T01:33:41;10.00;;;4.95;;
48845;SDS011;34665;51.886;5.436;2024-02-21T01:36:08;16.77;;;4.82;;
48845;SDS011;34665;51.886;5.436;2024-02-21T01:38:33;11.33;;;4.73;;
48845;SDS011;34665;51.886;5.436;2024-02-21T01:40:59;10.60;;;4.10;;
48845;SDS011;34665;51.886;5.436;2024-02-21T01:45:55;14.13;;;4.60;;
48845;SDS011;34665;51.886;5.436;2024-02-21T01:48:21;13.17;;;5.10;;
48845;SDS011;34665;51.886;5.436;2024-02-21T01:50:48;15.90;;;5.28;;
48845;SDS011;34665;51.886;5.436;2024-02-21T01:53:33;13.97;;;4.60;;
48845;SDS011;34665;51.886;5.436;2024-02-21T01:56:00;10.73;;;5.23;;
48845;SDS011;34665;51.886;5.436;2024-02-21T01:58:25;22.48;;;4.75;;
48845;SDS011;34665;51.886;5.436;2024-02-21T02:00:51;16.38;;;6.13;;
48845;SDS011;34665;51.886;5.436;2024-02-21T02:03:18;16.80;;;5.43;;
48845;SDS011;34665;51.886;5.436;2024-02-21T02:05:47;13.32;;;4.55;;
48845;SDS011;34665;51.886;5.436;2024-02-21T02:08:17;13.03;;;4.67;;
48845;SDS011;34665;51.886;5.436;2024-02-21T02:10:44;26.50;;;5.47;;
48845;SDS011;34665;51.886;5.436;2024-02-21T02:13:10;21.38;;;4.60;;
48845;SDS011;34665;51.886;5.436;2024-02-21T02:15:45;11.63;;;3.80;;
48845;SDS011;34665;51.886;5.436;2024-02-21T02:18:11;15.27;;;4.30;;
48845;SDS011;34665;51.886;5.436;2024-02-21T02:20:37;13.27;;;5.00;;
48845;SDS011;34665;51.886;5.436;2024-02-21T02:23:10;17.92;;;5.25;;
48845;SDS011;34665;51.886;5.436;2024-02-21T02:25:36;21.33;;;5.67;;
48845;SDS011;34665;51.886;5.436;2024-02-21T02:28:03;15.40;;;4.22;;
48845;SDS011;34665;51.886;5.436;2024-02-21T02:30:31;18.10;;;5.63;;
48845;SDS011;34665;51.886;5.436;2024-02-21T02:32:57;16.97;;;5.87;;
48845;SDS011;34665;51.886;5.436;2024-02-21T02:35:22;14.47;;;5.30;;
48845;SDS011;34665;51.886;5.436;2024-02-21T02:37:48;18.02;;;5.40;;
48845;SDS011;34665;51.886;5.436;2024-02-21T02:40:15;12.50;;;5.30;;
48845;SDS011;34665;51.886;5.436;2024-02-21T02:42:40;17.43;;;6.33;;
48845;SDS011;34665;51.886;5.436;2024-02-21T02:45:06;17.93;;;6.10;;
48845;SDS011;34665;51.886;5.436;2024-02-21T02:47:32;23.77;;;7.32;;
48845;SDS011;34665;51.886;5.436;2024-02-21T02:49:59;21.70;;;6.33;;
48845;SDS011;34665;51.886;5.436;2024-02-21T02:52:25;15.13;;;6.03;;
48845;SDS011;34665;51.886;5.436;2024-02-21T02:54:50;25.20;;;8.37;;
48845;SDS011;34665;51.886;5.436;2024-02-21T02:57:17;23.27;;;8.27;;
48845;SDS011;34665;51.886;5.436;2024-02-21T02:59:49;26.50;;;7.63;;
48845;SDS011;34665;51.886;5.436;2024-02-21T03:02:15;17.73;;;8.10;;
48845;SDS011;34665;51.886;5.436;2024-02-21T03:04:41;20.20;;;7.88;;
48845;SDS011;34665;51.886;5.436;2024-02-21T03:07:06;19.63;;;7.77;;
48845;SDS011;34665;51.886;5.436;2024-02-21T03:09:32;17.85;;;7.57;;
48845;SDS011;34665;51.886;5.436;2024-02-21T03:11:57;18.75;;;8.35;;
48845;SDS011;34665;51.886;5.436;2024-02-21T03:14:28;18.70;;;8.60;;
48845;SDS011;34665;51.886;5.436;2024-02-21T03:16:54;17.88;;;7.82;;
48845;SDS011;34665;51.886;5.436;2024-02-21T03:19:19;19.27;;;8.17;;
48845;SDS011;34665;51.886;5.436;2024-02-21T03:21:45;27.40;;;8.90;;
48845;SDS011;34665;51.886;5.436;2024-02-21T03:24:10;17.33;;;8.17;;
48845;SDS011;34665;51.886;5.436;2024-02-21T03:26:36;20.63;;;7.88;;
48845;SDS011;34665;51.886;5.436;2024-02-21T03:29:01;19.90;;;7.80;;
48845;SDS011;34665;51.886;5.436;2024-02-21T03:31:27;21.50;;;7.95;;
48845;SDS011;34665;51.886;5.436;2024-02-21T03:33:52;21.20;;;7.50;;
48845;SDS011;34665;51.886;5.436;2024-02-21T03:36:18;26.02;;;7.82;;
48845;SDS011;34665;51.886;5.436;2024-02-21T03:38:43;26.10;;;7.50;;
48845;SDS011;34665;51.886;5.436;2024-02-21T03:43:37;20.47;;;6.73;;
48845;SDS011;34665;51.886;5.436;2024-02-21T03:46:02;25.97;;;8.13;;
48845;SDS011;34665;51.886;5.436;2024-02-21T03:48:28;12.60;;;6.90;;
48845;SDS011;34665;51.886;5.436;2024-02-21T03:50:53;26.80;;;8.73;;
48845;SDS011;34665;51.886;5.436;2024-02-21T03:53:19;17.73;;;7.43;;
48845;SDS011;34665;51.886;5.436;2024-02-21T03:55:44;17.65;;;7.55;;
48845;SDS011;34665;51.886;5.436;2024-02-21T03:58:10;24.20;;;6.67;;
48845;SDS011;34665;51.886;5.436;2024-02-21T04:00:35;18.97;;;6.90;;
48845;SDS011;34665;51.886;5.436;2024-02-21T04:03:00;24.00;;;7.60;;
48845;SDS011;34665;51.886;5.436;2024-02-21T04:05:26;20.33;;;7.27;;
48845;SDS011;34665;51.886;5.436;2024-02-21T04:07:53;10.67;;;5.70;;
48845;SDS011;34665;51.886;5.436;2024-02-21T04:10:18;16.47;;;7.10;;
48845;SDS011;34665;51.886;5.436;2024-02-21T04:12:44;15.80;;;6.07;;
48845;SDS011;34665;51.886;5.436;2024-02-21T04:15:09;19.30;;;6.30;;
48845;SDS011;34665;51.886;5.436;2024-02-21T04:17:35;17.98;;;6.60;;
48845;SDS011;34665;51.886;5.436;2024-02-21T04:20:02;19.60;;;7.20;;
48845;SDS011;34665;51.886;5.436;2024-02-21T04:22:30;17.73;;;6.53;;
48845;SDS011;34665;51.886;5.436;2024-02-21T04:24:56;15.77;;;6.60;;
48845;SDS011;34665;51.886;5.436;2024-02-21T04:27:22;20.97;;;6.80;;
48845;SDS011;34665;51.886;5.436;2024-02-21T04:29:47;14.80;;;6.75;;
48845;SDS011;34665;51.886;5.436;2024-02-21T04:32:13;16.50;;;6.87;;
48845;SDS011;34665;51.886;5.436;2024-02-21T04:34:40;20.20;;;7.90;;
48845;SDS011;34665;51.886;5.436;2024-02-21T04:37:05;21.73;;;7.17;;
48845;SDS011;34665;51.886;5.436;2024-02-21T04:39:31;18.00;;;7.87;;
48845;SDS011;34665;51.886;5.436;2024-02-21T04:41:56;16.80;;;6.70;;
48845;SDS011;34665;51.886;5.436;2024-02-21T04:44:22;17.60;;;7.33;;
48845;SDS011;34665;51.886;5.436;2024-02-21T04:46:47;22.50;;;6.97;;
48845;SDS011;34665;51.886;5.436;2024-02-21T04:49:13;19.40;;;7.40;;
48845;SDS011;34665;51.886;5.436;2024-02-21T04:51:39;12.33;;;6.37;;
48845;SDS011;34665;51.886;5.436;2024-02-21T04:54:04;18.75;;;6.68;;
48845;SDS011;34665;51.886;5.436;2024-02-21T04:56:30;21.60;;;8.10;;
48845;SDS011;34665;51.886;5.436;2024-02-21T04:58:55;26.23;;;7.75;;
48845;SDS011;34665;51.886;5.436;2024-02-21T05:01:21;13.37;;;6.97;;
48845;SDS011;34665;51.886;5.436;2024-02-21T05:03:46;19.67;;;8.07;;
48845;SDS011;34665;51.886;5.436;2024-02-21T05:06:12;13.90;;;5.97;;
48845;SDS011;34665;51.886;5.436;2024-02-21T05:08:37;14.07;;;7.33;;
48845;SDS011;34665;51.886;5.436;2024-02-21T05:11:03;23.63;;;9.05;;
48845;SDS011;34665;51.886;5.436;2024-02-21T05:13:29;21.08;;;8.23;;
48845;SDS011;34665;51.886;5.436;2024-02-21T05:15:54;27.80;;;9.38;;
48845;SDS011;34665;51.886;5.436;2024-02-21T05:18:20;26.58;;;9.43;;
48845;SDS011;34665;51.886;5.436;2024-02-21T05:20:46;31.75;;;10.43;;
48845;SDS011;34665;51.886;5.436;2024-02-21T05:23:11;27.37;;;10.67;;
48845;SDS011;34665;51.886;5.436;2024-02-21T05:25:37;25.52;;;8.77;;
48845;SDS011;34665;51.886;5.436;2024-02-21T05:28:02;29.77;;;9.77;;
48845;SDS011;34665;51.886;5.436;2024-02-21T05:30:29;22.08;;;9.63;;
48845;SDS011;34665;51.886;5.436;2024-02-21T05:32:55;28.83;;;10.55;;
48845;SDS011;34665;51.886;5.436;2024-02-21T05:35:24;22.00;;;9.75;;
48845;SDS011;34665;51.886;5.436;2024-02-21T05:37:50;25.60;;;11.53;;
48845;SDS011;34665;51.886;5.436;2024-02-21T05:40:18;33.87;;;10.77;;
48845;SDS011;34665;51.886;5.436;2024-02-21T05:42:43;23.50;;;10.43;;
48845;SDS011;34665;51.886;5.436;2024-02-21T05:45:09;24.70;;;10.50;;
48845;SDS011;34665;51.886;5.436;2024-02-21T05:47:34;21.60;;;10.90;;
48845;SDS011;34665;51.886;5.436;2024-02-21T05:50:00;25.20;;;11.33;;
48845;SDS011;34665;51.886;5.436;2024-02-21T05:52:25;25.88;;;11.00;;
48845;SDS011;34665;51.886;5.436;2024-02-21T05:54:51;21.80;;;10.38;;
48845;SDS011;34665;51.886;5.436;2024-02-21T05:57:19;23.15;;;9.65;;
48845;SDS011;34665;51.886;5.436;2024-02-21T05:59:45;30.27;;;11.77;;
48845;SDS011;34665;51.886;5.436;2024-02-21T06:02:10;29.83;;;10.27;;
48845;SDS011;34665;51.886;5.436;2024-02-21T06:04:36;22.80;;;10.23;;
48845;SDS011;34665;51.886;5.436;2024-02-21T06:07:01;23.77;;;11.23;;
48845;SDS011;34665;51.886;5.436;2024-02-21T06:09:27;25.42;;;11.07;;
48845;SDS011;34665;51.886;5.436;2024-02-21T06:11:53;25.20;;;11.27;;
48845;SDS011;34665;51.886;5.436;2024-02-21T06:14:19;30.38;;;12.13;;
48845;SDS011;34665;51.886;5.436;2024-02-21T06:16:45;28.02;;;11.43;;
48845;SDS011;34665;51.886;5.436;2024-02-21T06:19:10;26.10;;;12.00;;
48845;SDS011;34665;51.886;5.436;2024-02-21T06:21:36;33.33;;;11.32;;
48845;SDS011;34665;51.886;5.436;2024-02-21T06:24:02;24.33;;;10.13;;
48845;SDS011;34665;51.886;5.436;2024-02-21T06:26:28;26.08;;;9.55;;
48845;SDS011;34665;51.886;5.436;2024-02-21T06:28:54;29.33;;;9.93;;
48845;SDS011;34665;51.886;5.436;2024-02-21T06:31:19;47.17;;;11.40;;
48845;SDS011;34665;51.886;5.436;2024-02-21T06:33:45;24.55;;;9.95;;
48845;SDS011;34665;51.886;5.436;2024-02-21T06:36:10;19.27;;;8.57;;
48845;SDS011;34665;51.886;5.436;2024-02-21T06:38:36;28.35;;;9.02;;
48845;SDS011;34665;51.886;5.436;2024-02-21T06:41:01;19.90;;;8.13;;
48845;SDS011;34665;51.886;5.436;2024-02-21T06:43:28;30.67;;;10.02;;
48845;SDS011;34665;51.886;5.436;2024-02-21T06:45:54;23.45;;;8.93;;
48845;SDS011;34665;51.886;5.436;2024-02-21T06:48:20;20.50;;;8.63;;
48845;SDS011;34665;51.886;5.436;2024-02-21T06:50:46;20.65;;;9.25;;
48845;SDS011;34665;51.886;5.436;2024-02-21T06:53:11;25.17;;;9.17;;
48845;SDS011;34665;51.886;5.436;2024-02-21T06:55:36;21.63;;;8.63;;
48845;SDS011;34665;51.886;5.436;2024-02-21T06:58:02;32.17;;;9.93;;
48845;SDS011;34665;51.886;5.436;2024-02-21T07:00:28;19.43;;;8.83;;
48845;SDS011;34665;51.886;5.436;2024-02-21T07:05:19;29.33;;;9.23;;
48845;SDS011;34665;51.886;5.436;2024-02-21T07:07:45;21.30;;;9.10;;
48845;SDS011;34665;51.886;5.436;2024-02-21T07:10:10;23.50;;;9.07;;
48845;SDS011;34665;51.886;5.436;2024-02-21T07:15:04;25.30;;;9.10;;
48845;SDS011;34665;51.886;5.436;2024-02-21T07:17:30;26.40;;;9.70;;
48845;SDS011;34665;51.886;5.436;2024-02-21T07:19:55;18.27;;;8.55;;
48845;SDS011;34665;51.886;5.436;2024-02-21T07:22:22;18.33;;;8.67;;
48845;SDS011;34665;51.886;5.436;2024-02-21T07:24:47;21.40;;;8.63;;
48845;SDS011;34665;51.886;5.436;2024-02-21T07:27:16;24.73;;;9.13;;
48845;SDS011;34665;51.886;5.436;2024-02-21T07:29:41;21.00;;;10.20;;
48845;SDS011;34665;51.886;5.436;2024-02-21T07:32:08;24.03;;;9.17;;
48845;SDS011;34665;51.886;5.436;2024-02-21T07:34:33;25.10;;;9.77;;
48845;SDS011;34665;51.886;5.436;2024-02-21T07:36:59;25.33;;;8.37;;
48845;SDS011;34665;51.886;5.436;2024-02-21T07:39:24;26.88;;;10.20;;
48845;SDS011;34665;51.886;5.436;2024-02-21T07:41:50;28.02;;;9.10;;
48845;SDS011;34665;51.886;5.436;2024-02-21T07:44:15;21.23;;;8.70;;
48845;SDS011;34665;51.886;5.436;2024-02-21T07:46:41;22.33;;;8.20;;
48845;SDS011;34665;51.886;5.436;2024-02-21T07:49:06;23.43;;;8.90;;
48845;SDS011;34665;51.886;5.436;2024-02-21T07:51:32;26.35;;;10.02;;
48845;SDS011;34665;51.886;5.436;2024-02-21T07:53:57;22.02;;;8.75;;
48845;SDS011;34665;51.886;5.436;2024-02-21T07:56:23;23.50;;;8.67;;
48845;SDS011;34665;51.886;5.436;2024-02-21T07:58:48;27.97;;;9.73;;
48845;SDS011;34665;51.886;5.436;2024-02-21T08:01:20;22.15;;;8.60;;
48845;SDS011;34665;51.886;5.436;2024-02-21T08:03:46;21.50;;;8.50;;
48845;SDS011;34665;51.886;5.436;2024-02-21T08:06:12;15.95;;;7.07;;
48845;SDS011;34665;51.886;5.436;2024-02-21T08:08:39;24.27;;;8.98;;
48845;SDS011;34665;51.886;5.436;2024-02-21T08:11:04;29.98;;;8.65;;
48845;SDS011;34665;51.886;5.436;2024-02-21T08:13:29;18.43;;;7.97;;
48845;SDS011;34665;51.886;5.436;2024-02-21T08:15:55;22.60;;;7.97;;
48845;SDS011;34665;51.886;5.436;2024-02-21T08:18:20;22.47;;;7.80;;
48845;SDS011;34665;51.886;5.436;2024-02-21T08:20:46;18.30;;;9.10;;
48845;SDS011;34665;51.886;5.436;2024-02-21T08:23:11;23.37;;;9.07;;
48845;SDS011;34665;51.886;5.436;2024-02-21T08:25:36;26.40;;;8.23;;
48845;SDS011;34665;51.886;5.436;2024-02-21T08:28:02;19.30;;;9.20;;
48845;SDS011;34665;51.886;5.436;2024-02-21T08:30:27;20.40;;;8.43;;
48845;SDS011;34665;51.886;5.436;2024-02-21T08:32:52;27.50;;;10.23;;
48845;SDS011;34665;51.886;5.436;2024-02-21T08:37:45;27.60;;;8.00;;
48845;SDS011;34665;51.886;5.436;2024-02-21T08:40:13;17.63;;;7.60;;
48845;SDS011;34665;51.886;5.436;2024-02-21T08:42:39;23.02;;;8.40;;
48845;SDS011;34665;51.886;5.436;2024-02-21T08:45:04;17.15;;;7.82;;
48845;SDS011;34665;51.886;5.436;2024-02-21T08:47:29;15.85;;;7.35;;
48845;SDS011;34665;51.886;5.436;2024-02-21T08:49:55;31.52;;;8.73;;
48845;SDS011;34665;51.886;5.436;2024-02-21T08:52:20;17.67;;;8.27;;
48845;SDS011;34665;51.886;5.436;2024-02-21T08:54:45;18.90;;;8.10;;
48845;SDS011;34665;51.886;5.436;2024-02-21T08:57:11;29.97;;;9.10;;
48845;SDS011;34665;51.886;5.436;2024-02-21T08:59:36;20.17;;;8.20;;
48845;SDS011;34665;51.886;5.436;2024-02-21T09:02:02;22.15;;;8.00;;
48845;SDS011;34665;51.886;5.436;2024-02-21T09:04:28;26.00;;;8.23;;
48845;SDS011;34665;51.886;5.436;2024-02-21T09:06:54;20.90;;;8.80;;
48845;SDS011;34665;51.886;5.436;2024-02-21T09:09:19;30.80;;;8.97;;
48845;SDS011;34665;51.886;5.436;2024-02-21T09:11:45;20.52;;;7.13;;
48845;SDS011;34665;51.886;5.436;2024-02-21T09:14:10;19.67;;;7.73;;
48845;SDS011;34665;51.886;5.436;2024-02-21T09:16:37;17.07;;;7.40;;
48845;SDS011;34665;51.886;5.436;2024-02-21T09:19:04;16.30;;;7.30;;
48845;SDS011;34665;51.886;5.436;2024-02-21T09:21:29;15.60;;;6.40;;
48845;SDS011;34665;51.886;5.436;2024-02-21T09:23:55;18.55;;;7.78;;
48845;SDS011;34665;51.886;5.436;2024-02-21T09:26:20;13.37;;;6.73;;
48845;SDS011;34665;51.886;5.436;2024-02-21T09:28:46;13.03;;;7.00;;
48845;SDS011;34665;51.886;5.436;2024-02-21T09:31:11;11.03;;;6.07;;
48845;SDS011;34665;51.886;5.436;2024-02-21T09:33:36;16.52;;;6.75;;
48845;SDS011;34665;51.886;5.436;2024-02-21T09:36:02;16.48;;;6.32;;
48845;SDS011;34665;51.886;5.436;2024-02-21T09:38:31;17.27;;;6.40;;
48845;SDS011;34665;51.886;5.436;2024-02-21T09:41:16;18.25;;;7.00;;
48845;SDS011;34665;51.886;5.436;2024-02-21T09:43:44;13.05;;;6.75;;
48845;SDS011;34665;51.886;5.436;2024-02-21T09:46:17;17.10;;;5.97;;
48845;SDS011;34665;51.886;5.436;2024-02-21T09:51:14;15.40;;;6.50;;
48845;SDS011;34665;51.886;5.436;2024-02-21T09:53:40;12.32;;;5.35;;
48845;SDS011;34665;51.886;5.436;2024-02-21T09:56:07;16.20;;;5.67;;
48845;SDS011;34665;51.886;5.436;2024-02-21T09:58:33;12.27;;;5.30;;
48845;SDS011;34665;51.886;5.436;2024-02-21T10:00:59;13.98;;;5.90;;
48845;SDS011;34665;51.886;5.436;2024-02-21T10:03:25;12.00;;;5.82;;
48845;SDS011;34665;51.886;5.436;2024-02-21T10:05:50;11.47;;;5.20;;
48845;SDS011;34665;51.886;5.436;2024-02-21T10:08:16;12.20;;;5.38;;
48845;SDS011;34665;51.886;5.436;2024-02-21T10:10:43;13.43;;;5.03;;
48845;SDS011;34665;51.886;5.436;2024-02-21T10:13:09;11.50;;;5.38;;
48845;SDS011;34665;51.886;5.436;2024-02-21T10:15:35;9.43;;;4.95;;
48845;SDS011;34665;51.886;5.436;2024-02-21T10:18:00;15.57;;;5.80;;
48845;SDS011;34665;51.886;5.436;2024-02-21T10:20:26;18.30;;;5.47;;
48845;SDS011;34665;51.886;5.436;2024-02-21T10:25:18;10.50;;;5.03;;
48845;SDS011;34665;51.886;5.436;2024-02-21T10:30:13;10.77;;;5.30;;
48845;SDS011;34665;51.886;5.436;2024-02-21T10:32:49;10.20;;;5.70;;
48845;SDS011;34665;51.886;5.436;2024-02-21T10:35:14;14.20;;;6.20;;
48845;SDS011;34665;51.886;5.436;2024-02-21T10:37:40;14.85;;;5.63;;
48845;SDS011;34665;51.886;5.436;2024-02-21T10:40:05;11.83;;;5.37;;
48845;SDS011;34665;51.886;5.436;2024-02-21T10:42:31;14.02;;;6.03;;
48845;SDS011;34665;51.886;5.436;2024-02-21T10:45:00;11.15;;;6.38;;
48845;SDS011;34665;51.886;5.436;2024-02-21T10:47:25;12.23;;;5.97;;
48845;SDS011;34665;51.886;5.436;2024-02-21T10:50:00;12.80;;;6.07;;
48845;SDS011;34665;51.886;5.436;2024-02-21T10:54:56;14.03;;;7.50;;
48845;SDS011;34665;51.886;5.436;2024-02-21T10:57:22;16.33;;;7.70;;
48845;SDS011;34665;51.886;5.436;2024-02-21T10:59:48;14.73;;;7.53;;
48845;SDS011;34665;51.886;5.436;2024-02-21T11:02:14;16.38;;;6.82;;
48845;SDS011;34665;51.886;5.436;2024-02-21T11:04:40;17.65;;;7.25;;
48845;SDS011;34665;51.886;5.436;2024-02-21T11:07:05;23.00;;;9.00;;
48845;SDS011;34665;51.886;5.436;2024-02-21T11:09:31;15.13;;;8.23;;
48845;SDS011;34665;51.886;5.436;2024-02-21T11:12:03;19.97;;;7.83;;
48845;SDS011;34665;51.886;5.436;2024-02-21T11:14:29;18.43;;;8.00;;
48845;SDS011;34665;51.886;5.436;2024-02-21T11:16:57;16.30;;;7.43;;
48845;SDS011;34665;51.886;5.436;2024-02-21T11:21:49;18.47;;;7.70;;
48845;SDS011;34665;51.886;5.436;2024-02-21T11:24:25;20.60;;;7.40;;
48845;SDS011;34665;51.886;5.436;2024-02-21T11:26:50;20.73;;;8.17;;
48845;SDS011;34665;51.886;5.436;2024-02-21T11:29:22;15.80;;;7.30;;
48845;SDS011;34665;51.886;5.436;2024-02-21T11:31:47;15.93;;;7.97;;
48845;SDS011;34665;51.886;5.436;2024-02-21T11:34:17;19.15;;;8.32;;
48845;SDS011;34665;51.886;5.436;2024-02-21T11:36:49;15.27;;;7.00;;
48845;SDS011;34665;51.886;5.436;2024-02-21T11:39:24;17.50;;;6.40;;
48845;SDS011;34665;51.886;5.436;2024-02-21T11:42:03;14.50;;;5.93;;
48845;SDS011;34665;51.886;5.436;2024-02-21T11:44:29;15.07;;;7.23;;
48845;SDS011;34665;51.886;5.436;2024-02-21T11:46:55;11.55;;;6.22;;
48845;SDS011;34665;51.886;5.436;2024-02-21T11:49:21;16.80;;;6.57;;
48845;SDS011;34665;51.886;5.436;2024-02-21T11:51:46;14.27;;;6.33;;
48845;SDS011;34665;51.886;5.436;2024-02-21T11:54:12;15.93;;;5.78;;
48845;SDS011;34665;51.886;5.436;2024-02-21T11:56:41;10.67;;;5.43;;
48845;SDS011;34665;51.886;5.436;2024-02-21T11:59:06;15.73;;;5.50;;
48845;SDS011;34665;51.886;5.436;2024-02-21T12:01:32;14.37;;;5.73;;
48845;SDS011;34665;51.886;5.436;2024-02-21T12:03:57;19.40;;;5.85;;
48845;SDS011;34665;51.886;5.436;2024-02-21T12:06:23;13.00;;;5.23;;
48845;SDS011;34665;51.886;5.436;2024-02-21T12:08:48;15.00;;;5.28;;
48845;SDS011;34665;51.886;5.436;2024-02-21T12:11:20;17.30;;;4.40;;
48845;SDS011;34665;51.886;5.436;2024-02-21T12:13:47;13.73;;;5.10;;
48845;SDS011;34665;51.886;5.436;2024-02-21T12:16:14;12.63;;;6.20;;
48845;SDS011;34665;51.886;5.436;2024-02-21T12:18:40;16.03;;;5.27;;
48845;SDS011;34665;51.886;5.436;2024-02-21T12:21:05;10.90;;;4.47;;
48845;SDS011;34665;51.886;5.436;2024-02-21T12:23:30;14.03;;;4.80;;
48845;SDS011;34665;51.886;5.436;2024-02-21T12:25:56;22.13;;;6.60;;
48845;SDS011;34665;51.886;5.436;2024-02-21T12:28:21;10.65;;;5.30;;
48845;SDS011;34665;51.886;5.436;2024-02-21T12:30:47;13.15;;;5.00;;
48845;SDS011;34665;51.886;5.436;2024-02-21T12:33:13;13.93;;;4.67;;
48845;SDS011;34665;51.886;5.436;2024-02-21T12:35:41;16.47;;;5.07;;
48845;SDS011;34665;51.886;5.436;2024-02-21T12:38:07;8.87;;;4.63;;
48845;SDS011;34665;51.886;5.436;2024-02-21T12:40:32;13.43;;;4.50;;
48845;SDS011;34665;51.886;5.436;2024-02-21T12:42:59;12.33;;;4.97;;
48845;SDS011;34665;51.886;5.436;2024-02-21T12:45:24;13.40;;;5.32;;
48845;SDS011;34665;51.886;5.436;2024-02-21T12:47:49;13.20;;;4.33;;
48845;SDS011;34665;51.886;5.436;2024-02-21T12:50:15;8.63;;;4.55;;
48845;SDS011;34665;51.886;5.436;2024-02-21T12:52:40;17.73;;;4.78;;
48845;SDS011;34665;51.886;5.436;2024-02-21T12:55:06;12.10;;;5.47;;
48845;SDS011;34665;51.886;5.436;2024-02-21T12:59:57;12.10;;;5.17;;
48845;SDS011;34665;51.886;5.436;2024-02-21T13:02:23;16.63;;;4.57;;
48845;SDS011;34665;51.886;5.436;2024-02-21T13:04:49;12.20;;;4.33;;
48845;SDS011;34665;51.886;5.436;2024-02-21T13:07:14;12.38;;;4.32;;
48845;SDS011;34665;51.886;5.436;2024-02-21T13:09:40;15.15;;;4.30;;
48845;SDS011;34665;51.886;5.436;2024-02-21T13:12:05;11.37;;;3.80;;
48845;SDS011;34665;51.886;5.436;2024-02-21T13:14:31;10.88;;;4.35;;
48845;SDS011;34665;51.886;5.436;2024-02-21T13:16:58;11.47;;;4.67;;
48845;SDS011;34665;51.886;5.436;2024-02-21T13:19:23;16.67;;;4.27;;
48845;SDS011;34665;51.886;5.436;2024-02-21T13:21:50;15.43;;;4.67;;
48845;SDS011;34665;51.886;5.436;2024-02-21T13:24:15;16.03;;;4.23;;
48845;SDS011;34665;51.886;5.436;2024-02-21T13:26:41;13.63;;;4.43;;
48845;SDS011;34665;51.886;5.436;2024-02-21T13:29:06;11.45;;;4.07;;
48845;SDS011;34665;51.886;5.436;2024-02-21T13:31:32;13.70;;;4.70;;
48845;SDS011;34665;51.886;5.436;2024-02-21T13:33:57;20.52;;;4.90;;
48845;SDS011;34665;51.886;5.436;2024-02-21T13:36:22;14.43;;;4.67;;
48845;SDS011;34665;51.886;5.436;2024-02-21T13:38:48;11.82;;;4.35;;
48845;SDS011;34665;51.886;5.436;2024-02-21T13:41:14;12.38;;;3.75;;
48845;SDS011;34665;51.886;5.436;2024-02-21T13:43:40;11.63;;;4.30;;
48845;SDS011;34665;51.886;5.436;2024-02-21T13:46:05;15.93;;;5.00;;
48845;SDS011;34665;51.886;5.436;2024-02-21T13:48:36;11.73;;;4.07;;
48845;SDS011;34665;51.886;5.436;2024-02-21T13:51:02;9.98;;;4.10;;
48845;SDS011;34665;51.886;5.436;2024-02-21T13:53:27;11.77;;;3.70;;
48845;SDS011;34665;51.886;5.436;2024-02-21T13:55:53;10.07;;;4.32;;
48845;SDS011;34665;51.886;5.436;2024-02-21T13:58:18;7.27;;;3.63;;
48845;SDS011;34665;51.886;5.436;2024-02-21T14:00:43;7.87;;;3.30;;
48845;SDS011;34665;51.886;5.436;2024-02-21T14:03:09;9.20;;;4.00;;
48845;SDS011;34665;51.886;5.436;2024-02-21T14:05:34;9.15;;;3.55;;
48845;SDS011;34665;51.886;5.436;2024-02-21T14:08:00;9.03;;;3.93;;
48845;SDS011;34665;51.886;5.436;2024-02-21T14:10:25;6.23;;;3.50;;
48845;SDS011;34665;51.886;5.436;2024-02-21T14:12:50;7.67;;;3.13;;
48845;SDS011;34665;51.886;5.436;2024-02-21T14:15:16;12.57;;;3.33;;
48845;SDS011;34665;51.886;5.436;2024-02-21T14:17:42;11.15;;;3.50;;
48845;SDS011;34665;51.886;5.436;2024-02-21T14:20:08;11.93;;;2.88;;
48845;SDS011;34665;51.886;5.436;2024-02-21T14:22:33;10.80;;;3.28;;
48845;SDS011;34665;51.886;5.436;2024-02-21T14:24:59;10.25;;;2.92;;
48845;SDS011;34665;51.886;5.436;2024-02-21T14:27:25;10.85;;;2.65;;
48845;SDS011;34665;51.886;5.436;2024-02-21T14:29:50;9.90;;;3.00;;
48845;SDS011;34665;51.886;5.436;2024-02-21T14:32:15;7.73;;;2.97;;
48845;SDS011;34665;51.886;5.436;2024-02-21T14:34:41;9.20;;;2.63;;
48845;SDS011;34665;51.886;5.436;2024-02-21T14:37:06;7.10;;;2.43;;
48845;SDS011;34665;51.886;5.436;2024-02-21T14:39:31;10.47;;;3.97;;
48845;SDS011;34665;51.886;5.436;2024-02-21T14:41:59;11.50;;;3.17;;
48845;SDS011;34665;51.886;5.436;2024-02-21T14:44:25;11.85;;;2.90;;
48845;SDS011;34665;51.886;5.436;2024-02-21T14:46:50;12.53;;;3.23;;
48845;SDS011;34665;51.886;5.436;2024-02-21T14:49:16;8.35;;;3.20;;
48845;SDS011;34665;51.886;5.436;2024-02-21T14:51:41;13.30;;;4.33;;
48845;SDS011;34665;51.886;5.436;2024-02-21T14:54:07;10.23;;;3.70;;
48845;SDS011;34665;51.886;5.436;2024-02-21T14:56:33;7.93;;;3.28;;